Time;durP1;ratioP1;P1;durP2;ratioP2;P2;SDS_P1;SDS_P2;PMS_P1;PMS_P2;Temp;Humidity;BMP_temperature;BMP_pressure;BME280_temperature;BME280_humidity;BME280_pressure;Samples;Min_cycle;Max_cycle;Signal;HPM_P1;HPM_P2
2023/03/31 00:01:19;;;;;;;10.60;1.60;;;12.50;99.90;;;;;;5068309;28;20370;-83
2023/03/31 00:03:45;;;;;;;9.70;2.30;;;12.60;99.90;;;;;;5055731;28;20373;-83
2023/03/31 00:06:16;;;;;;;14.20;1.83;;;12.60;99.90;;;;;;5075820;28;20461;-83
2023/03/31 00:08:42;;;;;;;11.52;2.10;;;12.60;99.90;;;;;;5073386;28;20400;-84
2023/03/31 00:11:08;;;;;;;9.45;1.92;;;12.60;99.90;;;;;;5071938;28;20024;-82
2023/03/31 00:13:35;;;;;;;8.52;1.70;;;12.60;99.90;;;;;;5091806;28;20029;-82
2023/03/31 00:16:04;;;;;;;8.65;2.17;;;12.70;99.90;;;;;;5090666;28;20028;-82
2023/03/31 00:18:30;;;;;;;10.93;2.10;;;12.70;99.90;;;;;;5055335;28;20032;-83
2023/03/31 00:21:23;;;;;;;13.85;2.38;;;12.70;99.90;;;;;;5052249;28;20031;-83
2023/03/31 00:23:52;;;;;;;9.27;1.73;;;12.70;99.90;;;;;;5072776;28;20046;-82
2023/03/31 00:26:18;;;;;;;9.32;2.22;;;12.70;99.90;;;;;;5063368;28;20324;-83
2023/03/31 00:28:44;;;;;;;11.63;2.35;;;12.70;99.90;;;;;;5041159;28;20028;-82
2023/03/31 00:31:10;;;;;;;11.32;2.45;;;12.80;99.90;;;;;;5057133;28;20035;-82
2023/03/31 00:33:35;;;;;;;9.05;1.65;;;12.80;99.90;;;;;;5032120;28;20521;-82
2023/03/31 00:36:04;;;;;;;13.10;2.72;;;12.90;99.90;;;;;;5055570;28;20040;-83
2023/03/31 00:38:31;;;;;;;9.18;2.00;;;12.90;99.90;;;;;;5073463;28;20036;-83
2023/03/31 00:40:57;;;;;;;12.70;2.53;;;13.00;99.90;;;;;;5072667;28;20500;-84
2023/03/31 00:43:35;;;;;;;13.60;2.35;;;13.00;99.90;;;;;;5055142;28;20131;-82
2023/03/31 00:46:14;;;;;;;8.85;1.80;;;13.00;99.90;;;;;;5073317;28;20024;-81
2023/03/31 00:48:47;;;;;;;11.43;2.80;;;13.00;99.90;;;;;;5071400;28;20476;-81
2023/03/31 00:51:13;;;;;;;11.10;2.22;;;13.00;99.90;;;;;;5068731;28;20040;-80
2023/03/31 00:53:39;;;;;;;9.23;2.13;;;13.00;99.90;;;;;;5057464;28;20045;-82
2023/03/31 00:56:11;;;;;;;8.40;1.77;;;13.00;99.90;;;;;;5056085;28;20464;-81
2023/03/31 00:58:42;;;;;;;8.10;1.42;;;13.00;99.90;;;;;;5081611;28;20028;-81
2023/03/31 01:01:13;;;;;;;8.65;2.05;;;13.00;99.90;;;;;;5059547;28;20043;-80
2023/03/31 01:03:41;;;;;;;11.55;1.70;;;13.00;99.90;;;;;;5070636;28;20028;-81
2023/03/31 01:06:09;;;;;;;8.18;1.67;;;12.90;99.90;;;;;;5089117;28;20036;-81
2023/03/31 01:08:37;;;;;;;6.40;1.30;;;12.80;99.90;;;;;;5055453;28;20025;-82
2023/03/31 01:11:08;;;;;;;8.60;1.50;;;12.70;99.90;;;;;;5073651;28;20170;-82
2023/03/31 01:13:39;;;;;;;10.45;1.95;;;12.60;99.90;;;;;;5060021;28;20044;-82
2023/03/31 01:16:05;;;;;;;8.95;1.40;;;12.50;99.90;;;;;;5057554;28;20354;-80
2023/03/31 01:18:34;;;;;;;10.13;1.33;;;12.40;99.90;;;;;;5075900;28;20032;-80
2023/03/31 01:21:32;;;;;;;5.88;1.40;;;12.40;99.90;;;;;;5065135;28;20048;-81
2023/03/31 01:24:38;;;;;;;8.35;1.38;;;12.30;99.90;;;;;;5083648;28;20455;-81
2023/03/31 01:27:40;;;;;;;5.43;1.05;;;12.30;99.90;;;;;;5072721;28;20034;-82
2023/03/31 01:30:39;;;;;;;7.68;1.00;;;12.30;99.90;;;;;;5072590;28;20024;-82
2023/03/31 01:33:34;;;;;;;7.88;1.23;;;12.30;99.90;;;;;;5070771;28;20041;-81
2023/03/31 01:36:02;;;;;;;6.57;0.93;;;12.40;99.90;;;;;;5054327;28;20044;-80
2023/03/31 01:38:45;;;;;;;6.95;0.95;;;12.40;99.90;;;;;;5067949;28;20029;-80
2023/03/31 01:41:39;;;;;;;7.60;0.77;;;12.40;99.90;;;;;;5074402;28;20286;-81
2023/03/31 01:44:19;;;;;;;5.95;0.75;;;12.30;99.90;;;;;;5090924;28;20036;-81
2023/03/31 01:47:24;;;;;;;4.88;0.75;;;12.40;99.90;;;;;;5071881;28;20349;-81
2023/03/31 01:50:05;;;;;;;7.20;0.95;;;12.40;99.90;;;;;;5090776;28;20028;-81
2023/03/31 01:52:47;;;;;;;7.35;1.10;;;12.40;99.90;;;;;;5089086;28;20544;-82
2023/03/31 01:55:49;;;;;;;6.13;1.10;;;12.40;99.90;;;;;;5094381;28;20047;-82
2023/03/31 01:58:22;;;;;;;7.25;1.20;;;12.30;99.90;;;;;;5038361;28;20044;-82
2023/03/31 02:00:55;;;;;;;4.22;1.23;;;12.40;99.90;;;;;;5093989;28;20028;-82
2023/03/31 02:03:28;;;;;;;12.85;1.55;;;12.40;99.90;;;;;;5065192;28;20396;-81
2023/03/31 02:05:57;;;;;;;7.97;1.17;;;12.40;99.90;;;;;;5075904;28;20036;-81
2023/03/31 02:08:47;;;;;;;9.82;1.10;;;12.40;99.90;;;;;;5073940;28;20115;-81
2023/03/31 02:11:13;;;;;;;10.55;1.60;;;12.40;99.90;;;;;;5065564;28;20552;-81
2023/03/31 02:13:43;;;;;;;6.57;0.90;;;12.30;99.90;;;;;;5043051;28;20130;-82
2023/03/31 02:16:15;;;;;;;7.65;1.20;;;12.30;99.90;;;;;;5088413;28;20495;-82
2023/03/31 02:18:43;;;;;;;6.82;1.30;;;12.40;99.90;;;;;;5075544;28;20024;-83
2023/03/31 02:21:10;;;;;;;10.80;1.15;;;12.30;99.90;;;;;;5063751;28;20476;-82
2023/03/31 02:23:37;;;;;;;6.70;1.10;;;12.30;99.90;;;;;;5059896;28;20028;-82
2023/03/31 02:26:08;;;;;;;8.55;1.40;;;12.30;99.90;;;;;;5074227;28;20035;-82
2023/03/31 02:28:34;;;;;;;8.07;1.05;;;12.30;99.90;;;;;;5057910;28;20052;-82
2023/03/31 02:31:12;;;;;;;9.30;1.60;;;12.20;99.90;;;;;;5075928;28;20107;-81
2023/03/31 02:33:38;;;;;;;9.80;1.38;;;12.30;99.90;;;;;;5093679;28;20081;-81
2023/03/31 02:36:04;;;;;;;10.85;1.60;;;12.30;99.90;;;;;;5038300;28;20052;-83
2023/03/31 02:38:38;;;;;;;6.60;1.30;;;12.30;99.90;;;;;;5062309;28;20117;-82
2023/03/31 02:41:04;;;;;;;11.63;1.58;;;12.30;99.90;;;;;;5071674;28;20050;-83
2023/03/31 02:43:30;;;;;;;7.25;1.40;;;12.20;99.90;;;;;;5057956;28;20056;-82
2023/03/31 02:45:55;;;;;;;8.93;1.63;;;12.20;99.90;;;;;;5038207;28;20083;-83
2023/03/31 02:48:23;;;;;;;10.57;1.92;;;12.20;99.90;;;;;;5039772;28;20378;-84
2023/03/31 02:51:10;;;;;;;9.63;1.67;;;12.20;99.90;;;;;;5063270;28;20025;-82
2023/03/31 02:54:00;;;;;;;11.07;1.60;;;12.20;99.90;;;;;;5070224;28;20036;-82
2023/03/31 02:56:56;;;;;;;12.15;1.85;;;12.10;99.90;;;;;;5069005;28;20025;-81
2023/03/31 02:59:34;;;;;;;9.95;2.17;;;12.10;99.90;;;;;;5052866;28;20389;-81
2023/03/31 03:02:23;;;;;;;13.00;1.35;;;12.10;99.90;;;;;;5061814;28;20020;-81
2023/03/31 03:05:17;;;;;;;12.52;1.30;;;12.10;99.90;;;;;;5064406;28;20028;-80
2023/03/31 03:08:03;;;;;;;6.50;1.40;;;12.00;99.90;;;;;;5068192;28;20111;-82
2023/03/31 03:10:38;;;;;;;10.35;1.27;;;12.00;99.90;;;;;;5061466;28;20032;-83
2023/03/31 03:13:07;;;;;;;8.88;1.90;;;12.00;99.90;;;;;;5070476;28;20039;-83
2023/03/31 03:15:46;;;;;;;14.48;1.90;;;12.00;99.90;;;;;;5072831;28;20027;-83
2023/03/31 03:18:13;;;;;;;9.30;1.55;;;11.90;99.90;;;;;;5070654;28;20024;-82
2023/03/31 03:20:41;;;;;;;8.32;1.33;;;11.90;99.90;;;;;;5059780;28;20070;-83
2023/03/31 03:23:07;;;;;;;7.97;1.17;;;11.90;99.90;;;;;;5051946;28;20054;-84
2023/03/31 03:25:33;;;;;;;5.15;0.70;;;11.90;99.90;;;;;;5068254;28;20037;-82
2023/03/31 03:27:58;;;;;;;7.57;0.90;;;11.90;99.90;;;;;;5063844;28;20026;-82
2023/03/31 03:30:24;;;;;;;10.40;1.42;;;11.90;99.90;;;;;;5054496;28;20036;-82
2023/03/31 03:32:50;;;;;;;7.50;0.73;;;11.80;99.90;;;;;;5068125;28;20036;-82
2023/03/31 03:35:16;;;;;;;8.95;1.25;;;11.80;99.90;;;;;;5029169;28;21268;-85
2023/03/31 03:37:42;;;;;;;9.77;0.85;;;11.90;99.90;;;;;;5062940;28;20027;-82
2023/03/31 03:40:09;;;;;;;8.40;1.10;;;11.90;99.90;;;;;;5052793;28;20467;-82
2023/03/31 03:42:35;;;;;;;9.55;1.17;;;12.00;99.90;;;;;;5064596;28;20055;-83
2023/03/31 03:45:01;;;;;;;8.23;1.05;;;12.10;99.90;;;;;;5070129;28;20036;-83
2023/03/31 03:47:27;;;;;;;7.60;1.10;;;12.10;99.90;;;;;;5058932;28;20052;-83
2023/03/31 03:49:53;;;;;;;8.00;1.10;;;12.10;99.90;;;;;;5063998;28;20032;-83
2023/03/31 03:52:19;;;;;;;8.27;1.15;;;12.10;99.90;;;;;;5043387;28;20033;-82
2023/03/31 03:54:45;;;;;;;9.30;1.70;;;12.10;99.90;;;;;;5053757;28;20029;-82
2023/03/31 03:57:13;;;;;;;8.45;1.10;;;12.10;99.90;;;;;;5051233;28;20665;-84
2023/03/31 03:59:39;;;;;;;10.55;1.15;;;12.10;99.90;;;;;;5068021;28;20037;-82
2023/03/31 04:02:04;;;;;;;8.60;1.35;;;12.20;99.90;;;;;;5072515;28;20067;-75
2023/03/31 04:04:30;;;;;;;9.85;1.40;;;12.20;99.90;;;;;;5074279;28;20039;-73
2023/03/31 04:06:56;;;;;;;12.13;1.38;;;12.20;99.90;;;;;;5073987;28;20060;-73
2023/03/31 04:09:21;;;;;;;11.95;1.30;;;12.20;99.90;;;;;;5071957;28;20086;-73
2023/03/31 04:11:47;;;;;;;8.25;1.25;;;12.20;99.90;;;;;;5073181;28;20090;-73
2023/03/31 04:14:13;;;;;;;12.45;2.35;;;12.20;99.90;;;;;;5055948;28;20044;-73
2023/03/31 04:16:39;;;;;;;12.70;1.90;;;12.20;99.90;;;;;;5072605;28;20034;-73
2023/03/31 04:19:05;;;;;;;8.07;1.15;;;12.20;99.90;;;;;;5072413;28;20111;-73
2023/03/31 04:21:33;;;;;;;11.30;2.10;;;12.10;99.90;;;;;;5072892;28;20473;-74
2023/03/31 04:24:06;;;;;;;14.18;2.17;;;12.10;99.90;;;;;;5056859;28;20050;-73
2023/03/31 04:26:42;;;;;;;14.00;1.95;;;12.10;99.90;;;;;;5073578;28;20028;-73
2023/03/31 04:29:13;;;;;;;11.23;1.55;;;12.00;99.90;;;;;;5073254;28;20035;-73
2023/03/31 04:31:42;;;;;;;13.30;2.08;;;11.90;99.90;;;;;;5072397;28;20128;-74
2023/03/31 04:34:13;;;;;;;9.27;1.77;;;11.90;99.90;;;;;;5075090;28;20126;-73
2023/03/31 04:36:51;;;;;;;10.45;1.35;;;11.90;99.90;;;;;;5094151;28;20024;-73
2023/03/31 04:39:29;;;;;;;7.97;1.50;;;11.80;99.90;;;;;;5094100;28;20035;-73
2023/03/31 04:41:56;;;;;;;9.88;1.80;;;11.90;99.90;;;;;;5077589;28;20024;-73
2023/03/31 04:44:21;;;;;;;11.80;2.28;;;11.90;99.90;;;;;;5075740;28;20039;-73
2023/03/31 04:46:47;;;;;;;18.13;2.35;;;11.90;99.90;;;;;;5059491;28;20028;-73
2023/03/31 04:49:13;;;;;;;8.30;1.77;;;12.00;99.90;;;;;;5076202;28;20126;-74
2023/03/31 04:51:39;;;;;;;14.30;2.20;;;11.90;99.90;;;;;;5075585;28;20115;-73
2023/03/31 04:54:04;;;;;;;12.07;2.75;;;11.90;99.90;;;;;;5075866;28;20024;-73
2023/03/31 04:56:30;;;;;;;13.32;1.70;;;11.90;99.90;;;;;;5059336;28;20582;-73
2023/03/31 04:58:56;;;;;;;11.88;1.63;;;11.90;99.90;;;;;;5075605;28;20036;-73
2023/03/31 05:01:21;;;;;;;10.93;1.10;;;11.90;99.90;;;;;;5075424;28;20372;-74
2023/03/31 05:03:47;;;;;;;8.35;0.93;;;11.90;99.90;;;;;;5093250;28;20411;-73
2023/03/31 05:06:16;;;;;;;10.00;2.35;;;11.90;99.90;;;;;;5093218;28;20044;-73
2023/03/31 05:08:42;;;;;;;11.98;1.70;;;11.90;99.90;;;;;;5093749;28;20119;-73
2023/03/31 05:11:07;;;;;;;13.30;1.52;;;11.90;99.90;;;;;;5074971;28;20028;-73
2023/03/31 05:13:33;;;;;;;11.30;1.25;;;11.80;99.90;;;;;;5058982;28;20417;-73
2023/03/31 05:16:06;;;;;;;9.35;1.17;;;11.90;99.90;;;;;;5093022;28;20385;-73
2023/03/31 05:18:31;;;;;;;9.30;1.58;;;11.90;99.90;;;;;;5093219;28;20032;-73
2023/03/31 05:21:06;;;;;;;10.27;1.55;;;11.80;99.90;;;;;;5075763;28;20032;-74
2023/03/31 05:23:32;;;;;;;12.27;1.70;;;11.90;99.90;;;;;;5098043;28;20040;-74
2023/03/31 05:25:58;;;;;;;12.90;1.70;;;11.80;99.90;;;;;;5097340;28;20039;-74
2023/03/31 05:28:23;;;;;;;15.88;1.70;;;11.80;99.90;;;;;;5079574;28;20372;-74
2023/03/31 05:30:49;;;;;;;7.90;1.33;;;11.80;99.90;;;;;;5079071;28;20032;-73
2023/03/31 05:33:15;;;;;;;7.07;1.23;;;11.70;99.90;;;;;;5079162;28;20032;-73
2023/03/31 05:35:40;;;;;;;10.27;1.52;;;11.70;99.90;;;;;;5062410;28;20051;-74
2023/03/31 05:38:06;;;;;;;8.52;1.10;;;11.60;99.90;;;;;;5097048;28;20035;-75
2023/03/31 05:40:32;;;;;;;11.90;1.50;;;11.70;99.90;;;;;;5079225;28;20113;-74
2023/03/31 05:42:57;;;;;;;10.55;1.70;;;11.70;99.90;;;;;;5079201;28;20040;-74
2023/03/31 05:45:23;;;;;;;12.55;1.45;;;11.70;99.90;;;;;;5062517;28;20038;-73
2023/03/31 05:47:49;;;;;;;7.97;1.05;;;11.70;99.90;;;;;;5078836;28;20461;-75
2023/03/31 05:50:15;;;;;;;14.65;1.40;;;11.80;99.90;;;;;;5079248;28;20024;-78
2023/03/31 05:52:40;;;;;;;10.05;1.40;;;11.80;99.90;;;;;;5061903;28;20036;-77
2023/03/31 05:55:07;;;;;;;9.85;0.80;;;11.80;99.90;;;;;;5097063;28;20059;-78
2023/03/31 05:57:32;;;;;;;9.75;0.98;;;11.70;99.90;;;;;;5062070;28;20468;-78
2023/03/31 05:59:58;;;;;;;11.00;1.45;;;11.80;99.90;;;;;;5096801;28;20031;-77
2023/03/31 06:02:24;;;;;;;9.07;1.35;;;11.80;99.90;;;;;;5097748;28;20450;-79
2023/03/31 06:04:50;;;;;;;10.55;1.30;;;11.80;99.90;;;;;;5098212;28;20372;-78
2023/03/31 06:07:16;;;;;;;12.55;1.40;;;11.80;99.90;;;;;;5062316;28;20028;-78
2023/03/31 06:09:42;;;;;;;9.93;1.13;;;11.90;99.90;;;;;;5079046;28;20028;-85
2023/03/31 06:12:08;;;;;;;9.63;1.00;;;11.90;99.90;;;;;;5063098;28;20020;-86
2023/03/31 06:14:34;;;;;;;7.72;1.17;;;11.90;99.90;;;;;;5066371;28;20460;-82
2023/03/31 06:16:59;;;;;;;8.48;1.20;;;11.80;99.90;;;;;;5082465;28;20075;-86
2023/03/31 06:19:25;;;;;;;7.53;1.00;;;11.80;99.90;;;;;;5102829;28;20039;-85
2023/03/31 06:21:51;;;;;;;8.75;1.00;;;11.70;99.90;;;;;;5085194;28;20481;-86
2023/03/31 06:24:16;;;;;;;8.93;1.42;;;11.70;99.90;;;;;;5099781;28;20099;-84
2023/03/31 06:26:42;;;;;;;5.90;0.90;;;11.70;99.90;;;;;;5064379;28;20020;-86
2023/03/31 06:29:08;;;;;;;9.00;0.90;;;11.80;99.90;;;;;;5080828;28;20028;-84
2023/03/31 06:31:34;;;;;;;7.60;1.20;;;11.80;99.90;;;;;;5046191;28;20130;-86
2023/03/31 06:33:59;;;;;;;4.25;1.13;;;11.80;99.90;;;;;;5096044;28;20037;-88
2023/03/31 06:36:25;;;;;;;9.40;0.88;;;11.80;99.90;;;;;;5062925;28;20477;-89
2023/03/31 06:38:52;;;;;;;4.20;1.00;;;11.90;99.90;;;;;;5062059;28;20032;-87
2023/03/31 06:41:19;;;;;;;5.30;0.70;;;11.90;99.90;;;;;;5062012;28;20027;-86
2023/03/31 06:43:45;;;;;;;5.15;0.73;;;11.90;99.90;;;;;;5096290;28;20055;-85
2023/03/31 06:46:11;;;;;;;9.15;0.88;;;11.90;99.90;;;;;;5078759;28;20052;-86
2023/03/31 06:48:37;;;;;;;9.18;1.50;;;11.90;99.90;;;;;;5077869;28;20030;-85
2023/03/31 06:51:04;;;;;;;6.47;0.68;;;11.90;99.90;;;;;;5096574;28;20031;-85
2023/03/31 06:53:30;;;;;;;5.40;0.75;;;11.90;99.90;;;;;;5078003;28;20055;-85
2023/03/31 06:55:56;;;;;;;6.13;0.73;;;11.90;99.90;;;;;;5096751;28;20032;-85
2023/03/31 06:58:22;;;;;;;3.88;0.60;;;11.90;99.90;;;;;;5079610;28;20077;-85
2023/03/31 07:00:48;;;;;;;8.45;0.68;;;11.90;99.90;;;;;;5077610;28;20460;-82
2023/03/31 07:03:21;;;;;;;5.35;0.82;;;11.90;99.90;;;;;;5078068;28;20032;-85
2023/03/31 07:05:54;;;;;;;7.45;0.55;;;11.90;99.90;;;;;;5096720;28;20024;-85
2023/03/31 07:08:20;;;;;;;4.25;0.40;;;12.00;99.90;;;;;;5096190;28;20031;-86
2023/03/31 07:10:47;;;;;;;5.85;1.02;;;12.00;99.90;;;;;;5077519;28;20028;-86
2023/03/31 07:13:17;;;;;;;8.05;0.85;;;12.00;99.90;;;;;;5095791;28;20115;-86
2023/03/31 07:15:46;;;;;;;2.60;0.60;;;12.00;99.90;;;;;;5060758;28;20212;-85
2023/03/31 07:18:14;;;;;;;3.95;0.52;;;12.00;99.90;;;;;;5095737;28;20099;-85
2023/03/31 07:20:40;;;;;;;4.82;0.80;;;12.00;99.90;;;;;;5078404;28;20161;-88
2023/03/31 07:23:07;;;;;;;4.80;0.80;;;12.00;99.90;;;;;;5077175;28;20077;-85
2023/03/31 07:25:33;;;;;;;4.85;0.65;;;12.00;99.90;;;;;;5060889;28;20028;-85
2023/03/31 07:27:59;;;;;;;3.92;0.40;;;12.00;99.90;;;;;;5077185;28;20024;-83
2023/03/31 07:30:25;;;;;;;6.35;0.63;;;12.00;99.90;;;;;;5061462;28;20436;-84
2023/03/31 07:32:51;;;;;;;4.93;0.65;;;12.00;99.90;;;;;;5077395;28;20030;-83
2023/03/31 07:35:18;;;;;;;4.10;0.43;;;12.00;99.90;;;;;;5076960;28;20040;-83
2023/03/31 07:37:46;;;;;;;5.15;0.50;;;12.00;99.90;;;;;;5094787;28;20069;-82
2023/03/31 07:40:19;;;;;;;6.03;0.50;;;12.00;99.90;;;;;;5076809;28;20077;-83
2023/03/31 07:42:47;;;;;;;;;;;12.10;99.90;;;;;;5095780;28;20028;-83
2023/03/31 07:45:15;;;;;;;7.82;0.57;;;12.20;99.90;;;;;;5076627;28;19995;-81
2023/03/31 07:47:41;;;;;;;6.40;0.80;;;12.20;99.90;;;;;;5060263;28;20482;-79
2023/03/31 07:50:08;;;;;;;5.63;0.63;;;12.20;99.90;;;;;;5060101;28;20032;-82
2023/03/31 07:52:33;;;;;;;5.47;0.82;;;12.20;99.90;;;;;;5094962;28;20032;-81
2023/03/31 07:54:59;;;;;;;5.15;0.65;;;12.30;99.90;;;;;;5076553;28;20388;-81
2023/03/31 07:57:25;;;;;;;2.65;0.65;;;12.30;99.90;;;;;;5059900;28;20028;-82
2023/03/31 07:59:50;;;;;;;4.80;0.70;;;12.30;99.90;;;;;;5076616;28;20028;-84
2023/03/31 08:02:17;;;;;;;5.25;0.68;;;12.30;99.90;;;;;;5077223;28;20440;-80
2023/03/31 08:04:43;;;;;;;4.32;0.80;;;12.40;99.90;;;;;;5043156;28;20448;-83
2023/03/31 08:07:10;;;;;;;6.90;0.95;;;12.50;99.90;;;;;;5076965;28;20103;-80
2023/03/31 08:09:36;;;;;;;5.38;0.90;;;12.50;99.90;;;;;;5076921;28;20035;-83
2023/03/31 08:12:02;;;;;;;5.57;0.50;;;12.50;99.90;;;;;;5075920;28;20077;-82
2023/03/31 08:14:28;;;;;;;4.35;0.63;;;12.50;99.90;;;;;;5094616;28;20145;-83
2023/03/31 08:16:54;;;;;;;6.00;0.35;;;12.60;99.90;;;;;;5094456;28;20447;-83
2023/03/31 08:19:21;;;;;;;4.57;0.50;;;12.50;99.90;;;;;;5059216;28;20055;-82
2023/03/31 08:21:47;;;;;;;4.05;0.52;;;12.60;99.90;;;;;;5076914;28;20355;-80
2023/03/31 08:24:12;;;;;;;2.80;0.40;;;12.60;99.90;;;;;;5094886;28;20116;-82
2023/03/31 08:26:40;;;;;;;6.32;0.80;;;12.60;99.90;;;;;;5060312;28;20056;-78
2023/03/31 08:29:05;;;;;;;4.57;0.65;;;12.50;99.90;;;;;;5076353;28;20028;-79
2023/03/31 08:31:31;;;;;;;6.75;0.80;;;12.50;99.90;;;;;;5059849;28;20066;-80
2023/03/31 08:33:57;;;;;;;5.68;0.52;;;12.40;99.90;;;;;;5075964;28;20129;-83
2023/03/31 08:36:24;;;;;;;4.93;0.75;;;12.50;99.90;;;;;;5076256;28;20048;-81
2023/03/31 08:38:50;;;;;;;7.70;1.10;;;12.50;99.90;;;;;;5076078;28;20024;-83
2023/03/31 08:41:26;;;;;;;9.50;1.95;;;12.50;99.90;;;;;;5075887;28;20368;-82
2023/03/31 08:43:55;;;;;;;6.30;0.90;;;12.60;99.90;;;;;;5094207;28;20037;-83
2023/03/31 08:46:21;;;;;;;6.63;0.82;;;12.60;99.90;;;;;;5076499;28;20024;-75
2023/03/31 08:48:55;;;;;;;9.57;1.27;;;12.50;99.90;;;;;;5059182;28;20035;-82
2023/03/31 08:51:30;;;;;;;12.05;2.05;;;12.50;99.90;;;;;;5094205;28;20212;-82
2023/03/31 08:54:02;;;;;;;11.00;1.55;;;12.50;99.90;;;;;;5093924;28;20113;-81
2023/03/31 08:56:28;;;;;;;13.55;1.67;;;12.50;99.90;;;;;;5093472;28;20012;-82
2023/03/31 08:59:00;;;;;;;10.73;1.70;;;12.50;99.90;;;;;;5075891;28;20061;-82
2023/03/31 09:01:38;;;;;;;11.90;1.50;;;12.50;99.90;;;;;;5075305;28;20064;-82
2023/03/31 09:04:31;;;;;;;12.18;2.13;;;12.60;99.90;;;;;;5093474;28;20062;-82
2023/03/31 09:07:06;;;;;;;;;;;12.60;99.90;;;;;;5093960;28;20115;-80
2023/03/31 09:09:53;;;;;;;12.40;1.98;;;12.60;99.90;;;;;;5093528;28;19919;-81
2023/03/31 09:12:24;;;;;;;15.02;2.25;;;12.60;99.90;;;;;;5093436;28;20073;-83
2023/03/31 09:15:00;;;;;;;16.70;2.63;;;12.60;99.90;;;;;;5093465;28;20028;-81
2023/03/31 09:17:33;;;;;;;15.07;2.65;;;12.70;99.90;;;;;;5076108;28;20073;-83
2023/03/31 09:20:08;;;;;;;12.50;2.10;;;12.70;99.90;;;;;;5093769;28;20055;-83
2023/03/31 09:22:39;;;;;;;15.55;2.92;;;12.70;99.90;;;;;;5093792;28;20475;-81
2023/03/31 09:25:12;;;;;;;12.98;2.15;;;12.70;99.90;;;;;;5093443;28;20468;-82
2023/03/31 09:27:40;;;;;;;;;;;12.70;99.90;;;;;;5094175;28;20098;-80
2023/03/31 09:30:27;;;;;;;16.13;2.88;;;12.70;99.90;;;;;;5093321;28;19904;-81
2023/03/31 09:33:15;;;;;;;13.18;2.30;;;12.70;99.90;;;;;;5075220;28;20032;-82
2023/03/31 09:35:41;;;;;;;20.05;2.20;;;12.80;99.90;;;;;;5093632;28;20056;-81
2023/03/31 09:38:10;;;;;;;16.67;2.67;;;12.90;99.90;;;;;;5075249;28;20389;-84
2023/03/31 09:40:36;;;;;;;15.20;2.25;;;12.90;99.90;;;;;;5093474;28;20016;-83
2023/03/31 09:43:20;;;;;;;17.42;3.10;;;12.80;99.90;;;;;;5093284;28;20040;-83
2023/03/31 09:45:46;;;;;;;19.67;4.30;;;12.80;99.90;;;;;;5075161;28;20035;-83
2023/03/31 09:48:17;;;;;;;17.88;2.20;;;12.80;99.90;;;;;;5058920;28;20024;-81
2023/03/31 09:51:12;;;;;;;16.50;2.33;;;12.80;99.90;;;;;;5076139;28;20417;-83
2023/03/31 09:53:44;;;;;;;24.02;2.97;;;12.80;99.90;;;;;;5071375;28;20131;-83
2023/03/31 09:56:10;;;;;;;18.83;2.95;;;12.90;99.90;;;;;;5093867;28;20020;-84
2023/03/31 09:58:41;;;;;;;16.17;3.03;;;12.90;99.90;;;;;;5076254;28;20049;-84
2023/03/31 10:01:09;;;;;;;19.98;2.80;;;12.90;99.90;;;;;;5058995;28;20036;-84
2023/03/31 10:03:52;;;;;;;16.17;2.38;;;13.00;99.90;;;;;;5075958;28;20506;-84
2023/03/31 10:06:19;;;;;;;14.77;3.00;;;12.90;99.90;;;;;;5094967;28;20028;-83
2023/03/31 10:08:56;;;;;;;15.93;2.25;;;12.90;99.90;;;;;;5077633;28;20023;-85
2023/03/31 10:11:23;;;;;;;19.00;3.15;;;12.90;99.90;;;;;;5098831;28;20051;-85
2023/03/31 10:13:58;;;;;;;14.95;2.20;;;12.90;99.90;;;;;;5062827;28;20036;-85
2023/03/31 10:16:32;;;;;;;13.85;2.10;;;12.90;99.90;;;;;;5078913;28;20032;-84
2023/03/31 10:19:17;;;;;;;17.27;1.98;;;12.90;99.90;;;;;;5099458;28;20034;-85
2023/03/31 10:21:46;;;;;;;21.80;3.25;;;12.90;99.90;;;;;;5098406;28;20027;-84
2023/03/31 10:24:18;;;;;;;11.50;2.30;;;12.90;99.90;;;;;;5080082;28;20038;-84
2023/03/31 10:26:48;;;;;;;17.30;3.40;;;12.90;99.90;;;;;;5079760;28;20031;-86
2023/03/31 10:29:20;;;;;;;12.80;2.40;;;12.80;99.90;;;;;;5079910;28;20036;-86
2023/03/31 10:31:46;;;;;;;16.73;2.35;;;12.90;99.90;;;;;;5100396;28;20035;-86
2023/03/31 10:34:17;;;;;;;16.70;2.25;;;12.90;99.90;;;;;;5063041;28;20392;-84
2023/03/31 10:36:50;;;;;;;13.18;2.03;;;12.90;99.90;;;;;;5080050;28;20103;-87
2023/03/31 10:39:16;;;;;;;;;;;12.90;99.90;;;;;;5083531;28;20024;-86
2023/03/31 10:41:47;;;;;;;11.27;2.45;;;13.00;99.90;;;;;;5063764;28;19908;-84
2023/03/31 10:44:36;;;;;;;12.73;1.95;;;13.00;99.90;;;;;;5078234;28;20078;-84
2023/03/31 10:47:12;;;;;;;15.25;2.03;;;13.00;99.90;;;;;;5081310;28;20081;-86
2023/03/31 10:49:39;;;;;;;15.02;2.70;;;13.10;99.90;;;;;;5080393;28;20028;-85
2023/03/31 10:52:14;;;;;;;15.18;2.55;;;13.20;99.90;;;;;;5082409;28;20058;-87
2023/03/31 10:54:46;;;;;;;12.13;1.90;;;13.20;99.90;;;;;;5087861;28;20028;-85
2023/03/31 10:57:13;;;;;;;11.47;1.83;;;13.30;99.90;;;;;;5068903;28;20370;-85
2023/03/31 11:00:00;;;;;;;16.27;2.55;;;13.30;99.90;;;;;;5063789;28;20274;-85
2023/03/31 11:03:07;;;;;;;15.02;2.08;;;13.40;99.90;;;;;;5078864;28;20501;-84
2023/03/31 11:05:50;;;;;;;18.27;2.40;;;13.50;99.90;;;;;;5048188;28;20048;-83
2023/03/31 11:08:34;;;;;;;14.02;2.08;;;13.50;99.90;;;;;;5096486;28;20035;-84
2023/03/31 11:11:24;;;;;;;13.65;2.08;;;13.60;99.90;;;;;;5096107;28;20024;-83
2023/03/31 11:14:18;;;;;;;12.02;1.90;;;13.60;99.90;;;;;;5078077;28;20028;-81
2023/03/31 11:17:02;;;;;;;16.10;2.65;;;13.60;99.90;;;;;;5095438;28;20471;-84
2023/03/31 11:20:04;;;;;;;15.40;2.63;;;13.60;99.90;;;;;;5077414;28;20047;-79
2023/03/31 11:22:51;;;;;;;11.13;1.48;;;13.50;99.90;;;;;;5095567;28;20073;-79
2023/03/31 11:25:28;;;;;;;10.18;1.58;;;13.50;99.90;;;;;;5095088;28;20034;-79
2023/03/31 11:28:22;;;;;;;11.15;1.92;;;13.50;99.90;;;;;;5077530;28;20035;-79
2023/03/31 11:31:14;;;;;;;12.55;2.00;;;13.50;99.90;;;;;;5094947;28;20055;-78
2023/03/31 11:33:58;;;;;;;10.65;1.70;;;13.50;99.90;;;;;;5095038;28;20028;-79
2023/03/31 11:36:35;;;;;;;11.18;1.75;;;13.60;99.90;;;;;;5077359;28;20048;-79
2023/03/31 11:39:13;;;;;;;11.43;2.30;;;13.60;99.90;;;;;;5076575;28;20024;-77
2023/03/31 11:41:42;;;;;;;12.55;2.00;;;13.60;99.90;;;;;;5094601;28;20077;-80
2023/03/31 11:44:13;;;;;;;10.18;1.67;;;13.50;99.90;;;;;;5077484;28;20032;-78
2023/03/31 11:46:55;;;;;;;13.00;1.83;;;13.60;99.90;;;;;;5094807;28;20043;-79
2023/03/31 11:49:26;;;;;;;7.32;1.80;;;13.70;99.90;;;;;;5094764;28;20024;-79
2023/03/31 11:52:20;;;;;;;11.65;1.75;;;13.70;99.90;;;;;;5076327;28;20028;-80
2023/03/31 11:55:17;;;;;;;10.98;1.40;;;13.70;99.90;;;;;;5085208;28;20043;-80
2023/03/31 11:58:02;;;;;;;11.30;1.52;;;13.80;99.90;;;;;;5068351;28;20040;-81
2023/03/31 12:00:35;;;;;;;11.38;1.92;;;13.80;99.90;;;;;;5094513;28;20016;-82
2023/03/31 12:03:18;;;;;;;8.38;1.80;;;13.80;99.90;;;;;;5076192;28;20032;-82
2023/03/31 12:05:50;;;;;;;9.93;2.35;;;13.70;99.90;;;;;;5094434;28;20056;-79
2023/03/31 12:08:30;;;;;;;10.20;1.60;;;13.70;99.90;;;;;;5093920;28;20103;-79
2023/03/31 12:11:30;;;;;;;9.25;1.42;;;13.70;99.90;;;;;;5076339;28;20024;-78
2023/03/31 12:14:00;;;;;;;12.32;1.85;;;13.60;99.90;;;;;;5060809;28;20552;-78
2023/03/31 12:16:36;;;;;;;10.20;1.67;;;13.60;99.90;;;;;;5094279;28;20050;-77
2023/03/31 12:19:09;;;;;;;10.23;1.70;;;13.60;99.90;;;;;;5075882;28;20027;-79
2023/03/31 12:21:39;;;;;;;10.48;2.05;;;13.60;99.90;;;;;;5094285;28;20038;-80
2023/03/31 12:24:05;;;;;;;13.43;2.08;;;13.50;99.90;;;;;;5076333;28;20131;-81
2023/03/31 12:26:56;;;;;;;11.50;2.42;;;13.50;99.90;;;;;;5076026;28;20063;-82
2023/03/31 12:29:25;;;;;;;11.82;1.77;;;13.50;99.90;;;;;;5075981;28;20055;-80
2023/03/31 12:31:54;;;;;;;12.68;1.85;;;13.60;99.90;;;;;;5075218;28;20020;-88
2023/03/31 12:34:23;;;;;;;15.60;2.00;;;13.50;99.90;;;;;;5076743;28;20038;-86
2023/03/31 12:37:15;;;;;;;8.73;1.65;;;13.50;99.90;;;;;;5077123;28;20050;-88
2023/03/31 12:39:59;;;;;;;12.02;1.73;;;13.50;99.90;;;;;;5090678;28;20040;-88
2023/03/31 12:42:43;;;;;;;10.60;1.67;;;13.50;99.90;;;;;;5095304;28;20038;-85
2023/03/31 12:45:30;;;;;;;13.35;1.98;;;13.50;99.90;;;;;;5094520;28;20023;-86
2023/03/31 12:47:59;;;;;;;11.57;1.60;;;13.50;99.90;;;;;;5059460;28;20035;-87
2023/03/31 12:50:42;;;;;;;10.68;1.45;;;13.50;99.90;;;;;;5076640;28;20030;-86
2023/03/31 12:53:17;;;;;;;10.88;1.83;;;13.50;99.90;;;;;;5093563;28;20020;-81
2023/03/31 12:55:48;;;;;;;11.45;1.70;;;13.50;99.90;;;;;;5093189;28;20029;-78
2023/03/31 12:58:26;;;;;;;9.20;2.10;;;13.50;99.90;;;;;;5094229;28;20460;-81
2023/03/31 13:01:16;;;;;;;13.70;2.10;;;13.40;99.90;;;;;;5075924;28;20110;-81
2023/03/31 13:03:45;;;;;;;10.98;1.42;;;13.30;99.90;;;;;;5075487;28;20067;-78
2023/03/31 13:06:31;;;;;;;15.07;1.90;;;13.40;99.90;;;;;;5093879;28;20020;-79
2023/03/31 13:09:03;;;;;;;9.90;0.85;;;13.30;99.90;;;;;;5093379;28;20110;-79